Three Rivers, Michigan
Current Conditions -  °F | °C
As of 2:14 AM on Friday 31 Oct 2014 (Local Time) from KHAI Reporting Station
Unknown Precip Unknown Precip  
Wind Chill: 43°   Ceiling: 6000
Heat Index: 45°   Visibility: 10mi
Dew Point: 38°   Wind: 5mph
Humidity: 77%   Direction: 210°SSW
Pressure: 29.98"   Gusts: NA
Location:  41.94°N, 85.64°W
Report Text: KHAI 310614Z AUTO 21004KT 10SM UP SCT032 SCT040 OVC060 07/04 A2998 RMK AO2 T00720035
Loading
Personal Weather Stations






























Interactive Weather Map
Tropical Storm Tracking
New forecast layout! Learn more

10-Day Weather Forecast

Advertisements
Track Severe Weather on mobile